RJCW/WKJ METAR and TAF weather

Enter ICAO airport designator
Station Type Date Time Source
RJCW METAR 2018/12/15 09:00 UTC NOAA

RJCW 150900Z 24009KT 9999 -SHSN FEW020 BKN030 M01/M05 Q1019


Station Type Date Time Source
RJCW Decoded METAR 2018/12/15 09:00 UTC NOAA

Wakkanai Airport, Japan (RJCW) 45-24N 141-48E 11M
Dec 15, 2018 - 04:00 AM EST / 2018.12.15 0900 UTC
Wind: from the WSW (240 degrees) at 10 MPH (9 KT):0
Visibility: greater than 7 mile(s):0
Sky conditions: mostly cloudy
Weather: light snow showers
Temperature: 30 F (-1 C)
Windchill: 21 F (-6 C):1
Dew Point: 23 F (-5 C)
Relative Humidity: 74%
Pressure (altimeter): 30.09 in. Hg (1019 hPa)
ob: RJCW 150900Z 24009KT 9999 -SHSN FEW020 BKN030 M01/M05 Q1019
cycle: 9

Station Type Date Time Source
RJCW TAF UTC NOAA

Error!


Example: see airport list